sensor_id;sensor_type;location;lat;lon;timestamp;pressure;altitude;pressure_sealevel;temperature;humidity
63552;BME280;49698;48.072;7.800;2023-04-01T00:01:06;98381.72;;;9.38;78.96
63552;BME280;49698;48.072;7.800;2023-04-01T00:03:34;98378.31;;;9.32;79.44
63552;BME280;49698;48.072;7.800;2023-04-01T00:06:03;98369.09;;;9.24;79.88
63552;BME280;49698;48.072;7.800;2023-04-01T00:08:32;98374.25;;;9.21;80.06
63552;BME280;49698;48.072;7.800;2023-04-01T00:11:01;98366.31;;;9.16;80.46
63552;BME280;49698;48.072;7.800;2023-04-01T00:13:28;98362.13;;;9.10;80.63
63552;BME280;49698;48.072;7.800;2023-04-01T00:15:56;98376.66;;;9.09;80.88
63552;BME280;49698;48.072;7.800;2023-04-01T00:18:25;98375.06;;;9.07;80.99
63552;BME280;49698;48.072;7.800;2023-04-01T00:20:54;98371.09;;;9.05;81.15
63552;BME280;49698;48.072;7.800;2023-04-01T00:23:22;98357.47;;;9.01;81.31
63552;BME280;49698;48.072;7.800;2023-04-01T00:25:51;98350.84;;;8.99;81.54
63552;BME280;49698;48.072;7.800;2023-04-01T00:28:19;98355.22;;;8.95;81.61
63552;BME280;49698;48.072;7.800;2023-04-01T00:30:47;98367.31;;;8.92;81.68
63552;BME280;49698;48.072;7.800;2023-04-01T00:33:15;98374.84;;;8.90;82.10
63552;BME280;49698;48.072;7.800;2023-04-01T00:35:44;98357.97;;;8.90;82.26
63552;BME280;49698;48.072;7.800;2023-04-01T00:38:12;98360.16;;;8.88;82.88
63552;BME280;49698;48.072;7.800;2023-04-01T00:40:42;98361.53;;;8.85;82.77
63552;BME280;49698;48.072;7.800;2023-04-01T00:43:14;98359.97;;;8.84;82.89
63552;BME280;49698;48.072;7.800;2023-04-01T00:45:46;98359.97;;;8.84;82.95
63552;BME280;49698;48.072;7.800;2023-04-01T00:48:16;98360.75;;;8.85;83.38
63552;BME280;49698;48.072;7.800;2023-04-01T00:50:48;98366.91;;;8.85;83.23
63552;BME280;49698;48.072;7.800;2023-04-01T00:53:17;98363.75;;;8.83;83.45
63552;BME280;49698;48.072;7.800;2023-04-01T00:55:51;98366.41;;;8.83;83.59
63552;BME280;49698;48.072;7.800;2023-04-01T00:58:25;98373.06;;;8.86;83.83
63552;BME280;49698;48.072;7.800;2023-04-01T01:00:54;98366.69;;;8.81;83.87
63552;BME280;49698;48.072;7.800;2023-04-01T01:03:23;98364.91;;;8.77;84.53
63552;BME280;49698;48.072;7.800;2023-04-01T01:06:10;98368.19;;;8.74;84.81
63552;BME280;49698;48.072;7.800;2023-04-01T01:08:51;98353.78;;;8.70;85.88
63552;BME280;49698;48.072;7.800;2023-04-01T01:11:24;98345.25;;;8.68;86.06
63552;BME280;49698;48.072;7.800;2023-04-01T01:14:01;98342.59;;;8.68;86.13
63552;BME280;49698;48.072;7.800;2023-04-01T01:16:36;98339.09;;;8.67;86.36
63552;BME280;49698;48.072;7.800;2023-04-01T01:19:17;98339.91;;;8.68;86.69
63552;BME280;49698;48.072;7.800;2023-04-01T01:22:03;98329.09;;;8.73;86.50
63552;BME280;49698;48.072;7.800;2023-04-01T01:24:45;98335.75;;;8.75;86.82
63552;BME280;49698;48.072;7.800;2023-04-01T01:27:20;98318.78;;;8.80;86.51
63552;BME280;49698;48.072;7.800;2023-04-01T01:30:08;98321.34;;;8.85;86.74
63552;BME280;49698;48.072;7.800;2023-04-01T01:33:17;98313.72;;;8.92;86.32
63552;BME280;49698;48.072;7.800;2023-04-01T01:35:54;98318.47;;;8.95;86.42
63552;BME280;49698;48.072;7.800;2023-04-01T01:38:26;98318.97;;;8.97;86.31
63552;BME280;49698;48.072;7.800;2023-04-01T01:40:59;98324.84;;;8.99;86.36
63552;BME280;49698;48.072;7.800;2023-04-01T01:43:30;98323.41;;;9.02;86.20
63552;BME280;49698;48.072;7.800;2023-04-01T01:46:03;98318.06;;;9.02;86.36
63552;BME280;49698;48.072;7.800;2023-04-01T01:48:34;98331.97;;;9.04;86.32
63552;BME280;49698;48.072;7.800;2023-04-01T01:51:06;98311.91;;;9.01;86.26
63552;BME280;49698;48.072;7.800;2023-04-01T01:53:34;98317.91;;;8.98;86.23
63552;BME280;49698;48.072;7.800;2023-04-01T01:56:03;98313.13;;;8.95;86.41
63552;BME280;49698;48.072;7.800;2023-04-01T01:58:39;98311.50;;;8.94;86.16
63552;BME280;49698;48.072;7.800;2023-04-01T02:01:16;98311.50;;;8.94;86.30
63552;BME280;49698;48.072;7.800;2023-04-01T02:03:46;98323.84;;;8.95;86.69
63552;BME280;49698;48.072;7.800;2023-04-01T02:06:21;98320.56;;;8.98;86.01
63552;BME280;49698;48.072;7.800;2023-04-01T02:08:51;98325.50;;;9.05;85.73
63552;BME280;49698;48.072;7.800;2023-04-01T02:11:24;98321.34;;;9.13;85.41
63552;BME280;49698;48.072;7.800;2023-04-01T02:13:54;98325.00;;;9.17;85.29
63552;BME280;49698;48.072;7.800;2023-04-01T02:16:27;98332.16;;;9.21;85.03
63552;BME280;49698;48.072;7.800;2023-04-01T02:18:58;98328.88;;;9.24;84.46
63552;BME280;49698;48.072;7.800;2023-04-01T02:21:31;98325.91;;;9.26;84.74
63552;BME280;49698;48.072;7.800;2023-04-01T02:24:01;98326.09;;;9.29;84.41
63552;BME280;49698;48.072;7.800;2023-04-01T02:26:30;98332.25;;;9.30;84.05
63552;BME280;49698;48.072;7.800;2023-04-01T02:28:59;98340.31;;;9.30;84.47
63552;BME280;49698;48.072;7.800;2023-04-01T02:31:29;98330.66;;;9.29;84.42
63552;BME280;49698;48.072;7.800;2023-04-01T02:33:58;98325.28;;;9.29;84.63
63552;BME280;49698;48.072;7.800;2023-04-01T02:36:26;98328.59;;;9.26;84.67
63552;BME280;49698;48.072;7.800;2023-04-01T02:38:56;98327.59;;;9.22;84.87
63552;BME280;49698;48.072;7.800;2023-04-01T02:41:28;98335.72;;;9.17;84.98
63552;BME280;49698;48.072;7.800;2023-04-01T02:43:56;98332.56;;;9.15;85.41
63552;BME280;49698;48.072;7.800;2023-04-01T02:46:26;98330.69;;;9.15;85.12
63552;BME280;49698;48.072;7.800;2023-04-01T02:48:53;98326.91;;;9.16;84.97
63552;BME280;49698;48.072;7.800;2023-04-01T02:51:21;98334.94;;;9.16;84.53
63552;BME280;49698;48.072;7.800;2023-04-01T02:53:49;98341.09;;;9.17;83.94
63552;BME280;49698;48.072;7.800;2023-04-01T02:56:19;98341.09;;;9.17;84.02
63552;BME280;49698;48.072;7.800;2023-04-01T02:58:48;98348.06;;;9.18;83.62
63552;BME280;49698;48.072;7.800;2023-04-01T03:01:17;98345.06;;;9.19;83.63
63552;BME280;49698;48.072;7.800;2023-04-01T03:03:45;98342.50;;;9.14;83.80
63552;BME280;49698;48.072;7.800;2023-04-01T03:06:14;98340.22;;;9.07;84.12
63552;BME280;49698;48.072;7.800;2023-04-01T03:08:42;98341.41;;;9.01;84.12
63552;BME280;49698;48.072;7.800;2023-04-01T03:11:11;98338.22;;;8.99;84.42
63552;BME280;49698;48.072;7.800;2023-04-01T03:13:41;98351.13;;;8.97;84.84
63552;BME280;49698;48.072;7.800;2023-04-01T03:16:10;98336.16;;;8.96;85.03
63552;BME280;49698;48.072;7.800;2023-04-01T03:18:37;98336.72;;;8.93;85.55
63552;BME280;49698;48.072;7.800;2023-04-01T03:21:13;98340.31;;;8.89;86.15
63552;BME280;49698;48.072;7.800;2023-04-01T03:23:42;98354.03;;;8.87;86.80
63552;BME280;49698;48.072;7.800;2023-04-01T03:26:10;98337.75;;;8.84;87.29
63552;BME280;49698;48.072;7.800;2023-04-01T03:28:38;98331.06;;;8.81;87.59
63552;BME280;49698;48.072;7.800;2023-04-01T03:31:07;98329.56;;;8.75;88.16
63552;BME280;49698;48.072;7.800;2023-04-01T03:33:42;98341.19;;;8.70;88.67
63552;BME280;49698;48.072;7.800;2023-04-01T03:36:10;98342.06;;;8.66;88.57
63552;BME280;49698;48.072;7.800;2023-04-01T03:38:40;98345.66;;;8.61;88.47
63552;BME280;49698;48.072;7.800;2023-04-01T03:41:13;98338.97;;;8.58;88.63
63552;BME280;49698;48.072;7.800;2023-04-01T03:43:43;98335.81;;;8.56;88.54
63552;BME280;49698;48.072;7.800;2023-04-01T03:46:17;98333.41;;;8.55;88.11
63552;BME280;49698;48.072;7.800;2023-04-01T03:48:45;98346.53;;;8.56;88.09
63552;BME280;49698;48.072;7.800;2023-04-01T03:51:13;98330.94;;;8.58;87.25
63552;BME280;49698;48.072;7.800;2023-04-01T03:53:42;98333.56;;;8.64;87.04
63552;BME280;49698;48.072;7.800;2023-04-01T03:56:09;98323.00;;;8.67;86.19
63552;BME280;49698;48.072;7.800;2023-04-01T03:58:38;98322.75;;;8.69;86.08
63552;BME280;49698;48.072;7.800;2023-04-01T04:01:17;98322.16;;;8.72;85.84
63552;BME280;49698;48.072;7.800;2023-04-01T04:03:46;98330.19;;;8.72;85.58
63552;BME280;49698;48.072;7.800;2023-04-01T04:06:17;98328.00;;;8.74;85.27
63552;BME280;49698;48.072;7.800;2023-04-01T04:08:46;98325.03;;;8.75;84.98
63552;BME280;49698;48.072;7.800;2023-04-01T04:11:15;98336.53;;;8.76;85.00
63552;BME280;49698;48.072;7.800;2023-04-01T04:13:43;98331.19;;;8.76;85.26
63552;BME280;49698;48.072;7.800;2023-04-01T04:16:11;98325.81;;;8.76;85.13
63552;BME280;49698;48.072;7.800;2023-04-01T04:18:45;98335.75;;;8.75;85.18
63552;BME280;49698;48.072;7.800;2023-04-01T04:21:15;98322.03;;;8.77;84.79
63552;BME280;49698;48.072;7.800;2023-04-01T04:23:43;98324.72;;;8.77;84.53
63552;BME280;49698;48.072;7.800;2023-04-01T04:26:14;98321.53;;;8.75;84.79
63552;BME280;49698;48.072;7.800;2023-04-01T04:28:48;98312.72;;;8.74;84.72
63552;BME280;49698;48.072;7.800;2023-04-01T04:31:19;98308.13;;;8.75;84.44
63552;BME280;49698;48.072;7.800;2023-04-01T04:33:50;98320.47;;;8.76;84.04
63552;BME280;49698;48.072;7.800;2023-04-01T04:36:18;98316.88;;;8.80;84.06
63552;BME280;49698;48.072;7.800;2023-04-01T04:38:48;98312.31;;;8.81;83.73
63552;BME280;49698;48.072;7.800;2023-04-01T04:41:17;98305.06;;;8.81;83.78
63552;BME280;49698;48.072;7.800;2023-04-01T04:43:50;98304.78;;;8.83;83.74
63552;BME280;49698;48.072;7.800;2023-04-01T04:46:21;98309.06;;;8.84;83.87
63552;BME280;49698;48.072;7.800;2023-04-01T04:48:56;98309.53;;;8.86;83.83
63552;BME280;49698;48.072;7.800;2023-04-01T04:51:24;98296.44;;;8.85;83.87
63552;BME280;49698;48.072;7.800;2023-04-01T04:53:53;98302.41;;;8.81;83.68
63552;BME280;49698;48.072;7.800;2023-04-01T04:56:30;98300.81;;;8.80;84.23
63552;BME280;49698;48.072;7.800;2023-04-01T04:59:03;98301.13;;;8.79;84.63
63552;BME280;49698;48.072;7.800;2023-04-01T05:01:41;98297.13;;;8.76;84.92
63552;BME280;49698;48.072;7.800;2023-04-01T05:04:10;98298.25;;;8.75;85.05
63552;BME280;49698;48.072;7.800;2023-04-01T05:06:38;98294.47;;;8.76;85.24
63552;BME280;49698;48.072;7.800;2023-04-01T05:09:06;98294.66;;;8.80;84.81
63552;BME280;49698;48.072;7.800;2023-04-01T05:11:35;98289.31;;;8.80;84.65
63552;BME280;49698;48.072;7.800;2023-04-01T05:14:03;98272.25;;;8.76;84.77
63552;BME280;49698;48.072;7.800;2023-04-01T05:16:31;98282.16;;;8.75;84.64
63552;BME280;49698;48.072;7.800;2023-04-01T05:18:59;98272.25;;;8.76;84.63
63552;BME280;49698;48.072;7.800;2023-04-01T05:21:28;98278.88;;;8.78;84.70
63552;BME280;49698;48.072;7.800;2023-04-01T05:23:57;98273.22;;;8.80;84.33
63552;BME280;49698;48.072;7.800;2023-04-01T05:26:25;98274.22;;;8.84;83.85
63552;BME280;49698;48.072;7.800;2023-04-01T05:28:53;98273.63;;;8.87;83.63
63552;BME280;49698;48.072;7.800;2023-04-01T05:31:21;98282.94;;;8.90;83.39
63552;BME280;49698;48.072;7.800;2023-04-01T05:33:50;98280.44;;;8.93;83.24
63552;BME280;49698;48.072;7.800;2023-04-01T05:36:20;98276.66;;;8.94;83.19
63552;BME280;49698;48.072;7.800;2023-04-01T05:38:50;98284.13;;;8.97;82.97
63552;BME280;49698;48.072;7.800;2023-04-01T05:41:19;98275.50;;;9.00;83.16
63552;BME280;49698;48.072;7.800;2023-04-01T05:43:47;98281.34;;;9.02;82.96
63552;BME280;49698;48.072;7.800;2023-04-01T05:46:41;98268.94;;;9.06;82.75
63552;BME280;49698;48.072;7.800;2023-04-01T05:49:19;98274.00;;;9.08;82.50
63552;BME280;49698;48.072;7.800;2023-04-01T05:51:48;98272.59;;;9.11;82.29
63552;BME280;49698;48.072;7.800;2023-04-01T05:54:19;98277.34;;;9.14;82.37
63552;BME280;49698;48.072;7.800;2023-04-01T05:56:47;98269.81;;;9.16;81.98
63552;BME280;49698;48.072;7.800;2023-04-01T05:59:16;98258.50;;;9.19;81.88
63552;BME280;49698;48.072;7.800;2023-04-01T06:01:44;98271.78;;;9.24;81.71
63552;BME280;49698;48.072;7.800;2023-04-01T06:04:14;98259.94;;;9.25;81.51
63552;BME280;49698;48.072;7.800;2023-04-01T06:06:44;98269.78;;;9.29;81.47
63552;BME280;49698;48.072;7.800;2023-04-01T06:09:15;98250.72;;;9.31;81.31
63552;BME280;49698;48.072;7.800;2023-04-01T06:12:08;98267.00;;;9.35;81.16
63552;BME280;49698;48.072;7.800;2023-04-01T06:15:18;98258.81;;;9.40;80.40
63552;BME280;49698;48.072;7.800;2023-04-01T06:18:01;98268.63;;;9.44;80.74
63552;BME280;49698;48.072;7.800;2023-04-01T06:20:38;98265.88;;;9.49;80.77
63552;BME280;49698;48.072;7.800;2023-04-01T06:23:17;98257.22;;;9.52;80.33
63552;BME280;49698;48.072;7.800;2023-04-01T06:26:15;98260.06;;;9.56;80.06
63552;BME280;49698;48.072;7.800;2023-04-01T06:29:03;98272.09;;;9.59;79.98
63552;BME280;49698;48.072;7.800;2023-04-01T06:31:44;98274.44;;;9.60;79.64
63552;BME280;49698;48.072;7.800;2023-04-01T06:34:24;98257.28;;;9.61;79.58
63552;BME280;49698;48.072;7.800;2023-04-01T06:37:10;98265.78;;;9.63;79.82
63552;BME280;49698;48.072;7.800;2023-04-01T06:39:57;98264.88;;;9.68;79.33
63552;BME280;49698;48.072;7.800;2023-04-01T06:42:39;98259.69;;;9.71;79.38
63552;BME280;49698;48.072;7.800;2023-04-01T06:45:37;98273.81;;;9.77;78.90
63552;BME280;49698;48.072;7.800;2023-04-01T06:48:38;98263.44;;;9.84;78.70
63552;BME280;49698;48.072;7.800;2023-04-01T06:51:40;98266.78;;;9.90;78.42
63552;BME280;49698;48.072;7.800;2023-04-01T06:54:52;98264.78;;;9.95;77.78
63552;BME280;49698;48.072;7.800;2023-04-01T06:57:46;98260.38;;;9.99;77.85
63552;BME280;49698;48.072;7.800;2023-04-01T07:00:19;98256.59;;;10.00;77.54
63552;BME280;49698;48.072;7.800;2023-04-01T07:02:54;98270.50;;;10.02;77.04
63552;BME280;49698;48.072;7.800;2023-04-01T07:05:29;98253.59;;;10.02;77.04
63552;BME280;49698;48.072;7.800;2023-04-01T07:08:01;98246.81;;;10.04;77.20
63552;BME280;49698;48.072;7.800;2023-04-01T07:10:35;98260.09;;;10.10;76.99
63552;BME280;49698;48.072;7.800;2023-04-01T07:13:48;98278.16;;;10.18;76.92
63552;BME280;49698;48.072;7.800;2023-04-01T07:16:20;98265.91;;;10.25;76.54
63552;BME280;49698;48.072;7.800;2023-04-01T07:18:57;98259.50;;;10.35;76.44
63552;BME280;49698;48.072;7.800;2023-04-01T07:21:46;98265.22;;;10.42;75.79
63552;BME280;49698;48.072;7.800;2023-04-01T07:24:26;98265.88;;;10.48;76.03
63552;BME280;49698;48.072;7.800;2023-04-01T07:27:04;98265.09;;;10.47;75.77
63552;BME280;49698;48.072;7.800;2023-04-01T07:29:34;98263.50;;;10.46;76.11
63552;BME280;49698;48.072;7.800;2023-04-01T07:32:21;98271.25;;;10.48;75.95
63552;BME280;49698;48.072;7.800;2023-04-01T07:35:13;98269.34;;;10.48;76.16
63552;BME280;49698;48.072;7.800;2023-04-01T07:37:55;98265.88;;;10.48;76.00
63552;BME280;49698;48.072;7.800;2023-04-01T07:40:32;98274.53;;;10.45;76.25
63552;BME280;49698;48.072;7.800;2023-04-01T07:43:17;98275.47;;;10.40;76.47
63552;BME280;49698;48.072;7.800;2023-04-01T07:45:59;98282.88;;;10.35;76.41
63552;BME280;49698;48.072;7.800;2023-04-01T07:48:33;98285.84;;;10.33;76.31
63552;BME280;49698;48.072;7.800;2023-04-01T07:51:11;98298.81;;;10.31;76.29
63552;BME280;49698;48.072;7.800;2023-04-01T07:53:46;98294.25;;;10.32;76.44
63552;BME280;49698;48.072;7.800;2023-04-01T07:56:22;98302.63;;;10.30;76.97
63552;BME280;49698;48.072;7.800;2023-04-01T07:59:00;98298.81;;;10.31;76.35
63552;BME280;49698;48.072;7.800;2023-04-01T08:02:05;98302.75;;;10.34;76.83
63552;BME280;49698;48.072;7.800;2023-04-01T08:04:51;98310.22;;;10.37;76.64
63552;BME280;49698;48.072;7.800;2023-04-01T08:07:30;98307.84;;;10.35;76.26
63552;BME280;49698;48.072;7.800;2023-04-01T08:10:20;98294.88;;;10.37;76.20
63552;BME280;49698;48.072;7.800;2023-04-01T08:13:15;98305.53;;;10.42;76.58
63552;BME280;49698;48.072;7.800;2023-04-01T08:16:13;98315.66;;;10.45;75.83
63552;BME280;49698;48.072;7.800;2023-04-01T08:18:54;98301.13;;;10.46;76.20
63552;BME280;49698;48.072;7.800;2023-04-01T08:21:31;98315.00;;;10.48;75.86
63552;BME280;49698;48.072;7.800;2023-04-01T08:24:13;98310.16;;;10.50;75.61
63552;BME280;49698;48.072;7.800;2023-04-01T08:26:49;98322.97;;;10.53;75.78
63552;BME280;49698;48.072;7.800;2023-04-01T08:29:21;98329.78;;;10.60;75.58
63552;BME280;49698;48.072;7.800;2023-04-01T08:31:56;98318.09;;;10.64;74.96
63552;BME280;49698;48.072;7.800;2023-04-01T08:34:32;98323.81;;;10.71;74.90
63552;BME280;49698;48.072;7.800;2023-04-01T08:37:04;98324.97;;;10.79;74.80
63552;BME280;49698;48.072;7.800;2023-04-01T08:39:37;98331.31;;;10.83;74.60
63552;BME280;49698;48.072;7.800;2023-04-01T08:42:31;98334.16;;;10.87;74.46
63552;BME280;49698;48.072;7.800;2023-04-01T08:45:18;98345.25;;;10.85;74.55
63552;BME280;49698;48.072;7.800;2023-04-01T08:48:11;98337.28;;;10.80;75.04
63552;BME280;49698;48.072;7.800;2023-04-01T08:50:58;98340.13;;;10.75;75.32
63552;BME280;49698;48.072;7.800;2023-04-01T08:53:50;98347.72;;;10.73;75.29
63552;BME280;49698;48.072;7.800;2023-04-01T08:56:33;98341.69;;;10.76;74.69
63552;BME280;49698;48.072;7.800;2023-04-01T08:59:36;98341.69;;;10.76;74.96
63552;BME280;49698;48.072;7.800;2023-04-01T09:02:49;98333.16;;;10.74;75.28
63552;BME280;49698;48.072;7.800;2023-04-01T09:08:34;98329.38;;;10.75;74.96
63552;BME280;49698;48.072;7.800;2023-04-01T09:11:08;98341.84;;;10.71;75.20
63552;BME280;49698;48.072;7.800;2023-04-01T09:14:23;98337.59;;;10.70;75.37
63552;BME280;49698;48.072;7.800;2023-04-01T09:17:25;98348.50;;;10.73;74.89
63552;BME280;49698;48.072;7.800;2023-04-01T09:20:07;98348.38;;;10.78;75.23
63552;BME280;49698;48.072;7.800;2023-04-01T09:22:50;98345.34;;;10.80;74.96
63552;BME280;49698;48.072;7.800;2023-04-01T09:25:38;98331.13;;;10.80;75.27
63552;BME280;49698;48.072;7.800;2023-04-01T09:28:18;98348.69;;;10.77;75.54
63552;BME280;49698;48.072;7.800;2023-04-01T09:31:13;98346.91;;;10.72;75.54
63552;BME280;49698;48.072;7.800;2023-04-01T09:34:15;98349.91;;;10.71;75.67
63552;BME280;49698;48.072;7.800;2023-04-01T09:37:13;98346.91;;;10.72;75.63
63552;BME280;49698;48.072;7.800;2023-04-01T09:42:53;98350.72;;;10.80;75.43
63552;BME280;49698;48.072;7.800;2023-04-01T09:45:41;98342.06;;;10.83;75.55
63552;BME280;49698;48.072;7.800;2023-04-01T09:48:34;98349.34;;;10.91;74.67
63552;BME280;49698;48.072;7.800;2023-04-01T09:51:17;98356.53;;;10.96;74.48
63552;BME280;49698;48.072;7.800;2023-04-01T09:54:04;98363.31;;;11.02;74.26
63552;BME280;49698;48.072;7.800;2023-04-01T09:57:14;98366.69;;;11.08;74.25
63552;BME280;49698;48.072;7.800;2023-04-01T10:00:24;98372.25;;;11.20;73.65
63552;BME280;49698;48.072;7.800;2023-04-01T10:06:23;98364.38;;;11.32;72.79
63552;BME280;49698;48.072;7.800;2023-04-01T10:12:29;98363.44;;;11.45;72.04
63552;BME280;49698;48.072;7.800;2023-04-01T10:15:28;98371.53;;;11.45;71.66
63552;BME280;49698;48.072;7.800;2023-04-01T10:34:54;98386.84;;;11.36;70.19
63552;BME280;49698;48.072;7.800;2023-04-01T10:37:59;98379.75;;;11.40;70.22
63552;BME280;49698;48.072;7.800;2023-04-01T10:44:11;98380.72;;;11.53;70.15
63552;BME280;49698;48.072;7.800;2023-04-01T10:47:11;98377.25;;;11.61;69.90
63552;BME280;49698;48.072;7.800;2023-04-01T10:56:22;98396.50;;;11.86;69.28
63552;BME280;49698;48.072;7.800;2023-04-01T10:59:43;98401.53;;;11.87;69.03
63552;BME280;49698;48.072;7.800;2023-04-01T11:03:08;98394.59;;;11.86;69.34
63552;BME280;49698;48.072;7.800;2023-04-01T11:10:05;98393.16;;;11.97;68.77
63552;BME280;49698;48.072;7.800;2023-04-01T11:13:22;98399.50;;;11.93;68.83
63552;BME280;49698;48.072;7.800;2023-04-01T11:16:32;98388.41;;;11.86;69.09
63552;BME280;49698;48.072;7.800;2023-04-01T11:19:28;98410.38;;;11.79;69.14
63552;BME280;49698;48.072;7.800;2023-04-01T11:22:19;98406.09;;;11.78;69.42
63552;BME280;49698;48.072;7.800;2023-04-01T11:25:36;98396.50;;;11.86;69.31
63552;BME280;49698;48.072;7.800;2023-04-01T11:28:59;98407.56;;;11.84;69.34
63552;BME280;49698;48.072;7.800;2023-04-01T11:31:39;98401.53;;;11.87;69.14
63552;BME280;49698;48.072;7.800;2023-04-01T11:34:34;98403.63;;;11.90;69.11
63552;BME280;49698;48.072;7.800;2023-04-01T11:37:15;98391.09;;;11.94;68.96
63552;BME280;49698;48.072;7.800;2023-04-01T11:40:17;98410.56;;;12.00;68.78
63552;BME280;49698;48.072;7.800;2023-04-01T11:43:12;98412.47;;;11.99;69.10
63552;BME280;49698;48.072;7.800;2023-04-01T11:46:23;98409.00;;;11.99;68.74
63552;BME280;49698;48.072;7.800;2023-04-01T11:49:02;98404.72;;;11.98;68.98
63552;BME280;49698;48.072;7.800;2023-04-01T11:51:53;98406.78;;;11.92;68.99
63552;BME280;49698;48.072;7.800;2023-04-01T11:54:42;98409.47;;;11.84;69.43
63552;BME280;49698;48.072;7.800;2023-04-01T11:57:31;98401.97;;;11.81;69.13
63552;BME280;49698;48.072;7.800;2023-04-01T12:00:18;98401.97;;;11.81;69.48
63552;BME280;49698;48.072;7.800;2023-04-01T12:02:55;98409.44;;;11.75;69.54
63552;BME280;49698;48.072;7.800;2023-04-01T12:05:38;98410.22;;;11.75;69.71
63552;BME280;49698;48.072;7.800;2023-04-01T12:08:19;98403.41;;;11.78;69.79
63552;BME280;49698;48.072;7.800;2023-04-01T12:10:57;98409.25;;;11.80;69.64
63552;BME280;49698;48.072;7.800;2023-04-01T12:13:36;98407.22;;;11.77;70.03
63552;BME280;49698;48.072;7.800;2023-04-01T12:16:18;98415.13;;;11.82;69.88
63552;BME280;49698;48.072;7.800;2023-04-01T12:18:53;98414.34;;;11.82;69.85
63552;BME280;49698;48.072;7.800;2023-04-01T12:21:26;98404.38;;;11.82;69.92
63552;BME280;49698;48.072;7.800;2023-04-01T12:26:53;98405.34;;;11.86;69.71
63552;BME280;49698;48.072;7.800;2023-04-01T12:29:45;98407.44;;;11.89;69.26
63552;BME280;49698;48.072;7.800;2023-04-01T12:32:25;98408.06;;;11.95;69.54
63552;BME280;49698;48.072;7.800;2023-04-01T12:35:13;98399.97;;;12.04;69.12
63552;BME280;49698;48.072;7.800;2023-04-01T12:37:52;98397.13;;;12.09;69.00
63552;BME280;49698;48.072;7.800;2023-04-01T12:40:45;98398.09;;;12.13;68.66
63552;BME280;49698;48.072;7.800;2023-04-01T12:43:29;98404.09;;;12.10;68.68
63552;BME280;49698;48.072;7.800;2023-04-01T12:46:07;98411.56;;;12.13;68.80
63552;BME280;49698;48.072;7.800;2023-04-01T12:51:53;98416.31;;;12.16;68.58
63552;BME280;49698;48.072;7.800;2023-04-01T12:55:02;98408.84;;;12.13;68.53
63552;BME280;49698;48.072;7.800;2023-04-01T12:57:52;98415.66;;;12.10;68.52
63552;BME280;49698;48.072;7.800;2023-04-01T13:00:39;98412.19;;;12.10;68.75
63552;BME280;49698;48.072;7.800;2023-04-01T13:03:23;98416.13;;;12.04;69.00
63552;BME280;49698;48.072;7.800;2023-04-01T13:06:31;98414.38;;;11.99;69.21
63552;BME280;49698;48.072;7.800;2023-04-01T13:09:12;98417.09;;;11.99;69.27
63552;BME280;49698;48.072;7.800;2023-04-01T13:11:54;98414.09;;;12.01;69.47
63552;BME280;49698;48.072;7.800;2023-04-01T13:14:58;98414.56;;;12.03;69.15
63552;BME280;49698;48.072;7.800;2023-04-01T13:17:33;98415.03;;;12.05;69.51
63552;BME280;49698;48.072;7.800;2023-04-01T13:20:14;98407.13;;;12.08;69.40
63552;BME280;49698;48.072;7.800;2023-04-01T13:22:58;98402.84;;;12.16;69.07
63552;BME280;49698;48.072;7.800;2023-04-01T13:25:36;98419.78;;;12.25;68.73
63552;BME280;49698;48.072;7.800;2023-04-01T13:28:13;98412.03;;;12.32;68.52
63552;BME280;49698;48.072;7.800;2023-04-01T13:30:49;98413.44;;;12.38;68.51
63552;BME280;49698;48.072;7.800;2023-04-01T13:33:27;98415.81;;;12.48;67.92
63552;BME280;49698;48.072;7.800;2023-04-01T13:36:08;98414.38;;;12.51;67.88
63552;BME280;49698;48.072;7.800;2023-04-01T13:38:51;98410.88;;;12.51;67.97
63552;BME280;49698;48.072;7.800;2023-04-01T13:41:45;98415.19;;;12.52;67.87
63552;BME280;49698;48.072;7.800;2023-04-01T13:44:21;98414.69;;;12.49;67.78
63552;BME280;49698;48.072;7.800;2023-04-01T13:47:20;98407.41;;;12.50;68.00
63552;BME280;49698;48.072;7.800;2023-04-01T13:50:26;98414.84;;;12.53;68.03
63552;BME280;49698;48.072;7.800;2023-04-01T13:55:58;98415.47;;;12.67;67.69
63552;BME280;49698;48.072;7.800;2023-04-01T13:58:45;98420.66;;;12.81;67.26
63552;BME280;49698;48.072;7.800;2023-04-01T14:01:27;98417.44;;;12.96;66.81
63552;BME280;49698;48.072;7.800;2023-04-01T14:07:35;98408.75;;;13.38;65.80
63552;BME280;49698;48.072;7.800;2023-04-01T14:10:18;98404.19;;;13.59;65.17
63552;BME280;49698;48.072;7.800;2023-04-01T14:12:51;98401.84;;;13.79;64.69
63552;BME280;49698;48.072;7.800;2023-04-01T14:15:41;98395.94;;;14.06;63.90
63552;BME280;49698;48.072;7.800;2023-04-01T14:18:26;98407.72;;;14.23;63.62
63552;BME280;49698;48.072;7.800;2023-04-01T14:21:07;98398.41;;;14.32;63.16
63552;BME280;49698;48.072;7.800;2023-04-01T14:23:59;98406.19;;;14.34;63.20
63552;BME280;49698;48.072;7.800;2023-04-01T14:26:56;98403.41;;;14.42;63.12
63552;BME280;49698;48.072;7.800;2023-04-01T14:29:34;98406.72;;;14.48;63.04
63552;BME280;49698;48.072;7.800;2023-04-01T14:32:11;98405.72;;;14.53;62.81
63552;BME280;49698;48.072;7.800;2023-04-01T14:34:58;98403.94;;;14.57;62.69
63552;BME280;49698;48.072;7.800;2023-04-01T14:37:48;98413.41;;;14.63;62.18
63552;BME280;49698;48.072;7.800;2023-04-01T14:40:28;98407.44;;;14.57;61.73
63552;BME280;49698;48.072;7.800;2023-04-01T14:43:27;98409.34;;;14.57;61.64
63552;BME280;49698;48.072;7.800;2023-04-01T14:46:24;98408.69;;;14.60;61.12
63552;BME280;49698;48.072;7.800;2023-04-01T14:48:57;98412.06;;;14.57;61.58
63552;BME280;49698;48.072;7.800;2023-04-01T14:51:29;98417.91;;;14.59;61.69
63552;BME280;49698;48.072;7.800;2023-04-01T14:54:11;98418.56;;;14.56;61.77
63552;BME280;49698;48.072;7.800;2023-04-01T14:56:44;98414.34;;;14.46;61.62
63552;BME280;49698;48.072;7.800;2023-04-01T14:59:26;98423.47;;;14.41;62.00
63552;BME280;49698;48.072;7.800;2023-04-01T15:02:00;98418.22;;;14.36;62.30
63552;BME280;49698;48.072;7.800;2023-04-01T15:04:50;98406.06;;;14.30;62.72
63552;BME280;49698;48.072;7.800;2023-04-01T15:07:38;98411.25;;;14.35;63.13